^^
Station Historical Data
 
Daily Summary for January 17, 2017 Units:  English    Metric   Both
« Previous Day
Next Day »
Daily Weekly Monthly Yearly Custom
  Current: High: Low: Average:
Temperature: 18.5 °F 23.3 °F 18.5 °F 21.6 °F
Dew Point: 15.3 °F 19.5 °F 14.8 °F 17.6 °F
Humidity: 87% 87% 82% 84%
Wind Speed: 0.0mph 2.3mph 0.0mph 0.2mph
Wind Gust: 0.0mph 2.3mph - -
WindCalm - - SW
Pressure: 30.12 in 30.13 in 30.09 in -
Precipitation: 0.00 in      
Historical Graphs
 
 
Tabular Data for January 17, 2017
Time Temperature Dew Point Pressure Wind Wind Speed Wind Gust Humidity Rainfall Rate (Hourly) solar Conditions
00:02 23.3 °F 18.6 °F 30.12 in Calm     82% 0.00 in WeatherDisplay:10.37 W/m2 RA
00:07 23.2 °F 18.8 °F 30.12 in Calm     83% 0.00 in WeatherDisplay:10.37 W/m2 RA
00:13 23.2 °F 18.8 °F 30.12 in Calm     83% 0.00 in WeatherDisplay:10.37 W/m2 CLR
00:18 23.1 °F 19.0 °F 30.12 in Calm     84% 0.00 in WeatherDisplay:10.37 W/m2 CLR
00:23 23.0 °F 18.9 °F 30.12 in Calm     84% 0.00 in WeatherDisplay:10.37 W/m2 CLR
00:28 22.8 °F 18.4 °F 30.11 in Calm     83% 0.00 in WeatherDisplay:10.37 W/m2 CLR
00:33 22.6 °F 18.2 °F 30.12 in Calm     83% 0.00 in WeatherDisplay:10.37 W/m2 CLR
00:38 22.5 °F 18.7 °F 30.11 in Calm     85% 0.00 in WeatherDisplay:10.37 W/m2 CLR
00:43 22.8 °F 19.5 °F 30.11 in SW 2.3 mph 2.3 mph 87% 0.00 in WeatherDisplay:10.37 W/m2 CLR
00:48 23.0 °F 19.4 °F 30.11 in Calm     86% 0.00 in WeatherDisplay:10.37 W/m2 CLR
00:53 23.0 °F 19.4 °F 30.11 in Calm     86% 0.00 in WeatherDisplay:10.37 W/m2 CLR
00:58 22.9 °F 18.8 °F 30.11 in Calm     84% 0.00 in WeatherDisplay:10.37 W/m2 CLR
01:03 22.7 °F 18.6 °F 30.11 in Calm     84% 0.00 in WeatherDisplay:10.37 W/m2 CLR
01:08 22.6 °F 18.5 °F 30.11 in Calm     84% 0.00 in WeatherDisplay:10.37 W/m2 CLR
01:13 22.5 °F 18.7 °F 30.11 in Calm     85% 0.00 in WeatherDisplay:10.37 W/m2 CLR
01:18 22.5 °F 18.7 °F 30.12 in Calm     85% 0.00 in WeatherDisplay:10.37 W/m2 CLR
01:23 22.5 °F 18.7 °F 30.12 in Calm     85% 0.00 in WeatherDisplay:10.37 W/m2 CLR
01:28 22.4 °F 18.3 °F 30.13 in Calm     84% 0.00 in WeatherDisplay:10.37 W/m2 CLR
01:33 22.2 °F 18.1 °F 30.13 in Calm     84% 0.00 in WeatherDisplay:10.37 W/m2 CLR
01:38 22.1 °F 18.3 °F 30.13 in Calm     85% 0.00 in WeatherDisplay:10.37 W/m2 CLR
01:43 22.0 °F 18.2 °F 30.13 in Calm     85% 0.00 in WeatherDisplay:10.37 W/m2 CLR
01:48 21.9 °F 18.1 °F 30.13 in Calm     85% 0.00 in WeatherDisplay:10.37 W/m2 CLR
01:53 21.7 °F 17.9 °F 30.13 in Calm     85% 0.00 in WeatherDisplay:10.37 W/m2 CLR
01:58 21.7 °F 18.2 °F 30.12 in Calm     86% 0.00 in WeatherDisplay:10.37 W/m2 CLR
02:03 21.7 °F 18.2 °F 30.12 in SW 1.2 mph 1.2 mph 86% 0.00 in WeatherDisplay:10.37 W/m2 CLR
02:08 21.8 °F 18.3 °F 30.12 in Calm     86% 0.00 in WeatherDisplay:10.37 W/m2 CLR
02:13 21.9 °F 18.6 °F 30.12 in Calm     87% 0.00 in WeatherDisplay:10.37 W/m2 CLR
02:18 22.1 °F 18.8 °F 30.11 in SW 2.3 mph 2.3 mph 87% 0.00 in WeatherDisplay:10.37 W/m2 CLR
02:23 22.4 °F 19.1 °F 30.11 in SW 1.2 mph 1.2 mph 87% 0.00 in WeatherDisplay:10.37 W/m2 CLR
02:28 22.6 °F 19.3 °F 30.10 in Calm     87% 0.00 in WeatherDisplay:10.37 W/m2 CLR
02:33 22.7 °F 19.1 °F 30.10 in SW 1.2 mph 1.2 mph 86% 0.00 in WeatherDisplay:10.37 W/m2 CLR
02:38 23.0 °F 19.2 °F 30.10 in SW 1.2 mph 1.2 mph 85% 0.00 in WeatherDisplay:10.37 W/m2 CLR
02:43 23.0 °F 18.6 °F 30.10 in Calm     83% 0.00 in WeatherDisplay:10.37 W/m2 CLR
02:48 23.0 °F 18.6 °F 30.10 in Calm     83% 0.00 in WeatherDisplay:10.37 W/m2 CLR
02:53 23.0 °F 18.3 °F 30.10 in SW 1.2 mph 1.2 mph 82% 0.00 in WeatherDisplay:10.37 W/m2 CLR
02:59 22.8 °F 18.1 °F 30.09 in SW 2.3 mph 2.3 mph 82% 0.00 in WeatherDisplay:10.37 W/m2 CLR
03:04 22.7 °F 18.0 °F 30.09 in Calm     82% 0.00 in WeatherDisplay:10.37 W/m2 CLR
03:09 22.6 °F 18.2 °F 30.09 in Calm     83% 0.00 in WeatherDisplay:10.37 W/m2 CLR
03:14 22.5 °F 18.1 °F 30.09 in Calm     83% 0.00 in WeatherDisplay:10.37 W/m2 CLR
03:19 22.5 °F 18.1 °F 30.09 in Calm     83% 0.00 in WeatherDisplay:10.37 W/m2 CLR
03:24 22.4 °F 18.0 °F 30.09 in Calm     83% 0.00 in WeatherDisplay:10.37 W/m2 CLR
03:29 22.3 °F 17.9 °F 30.09 in SW 1.2 mph   83% 0.00 in WeatherDisplay:10.37 W/m2 CLR
03:34 22.3 °F 17.9 °F 30.09 in Calm     83% 0.00 in WeatherDisplay:10.37 W/m2 CLR
03:39 22.3 °F 17.9 °F 30.09 in Calm     83% 0.00 in WeatherDisplay:10.37 W/m2 CLR
03:44 22.1 °F 17.7 °F 30.09 in Calm     83% 0.00 in WeatherDisplay:10.37 W/m2 CLR
03:49 22.0 °F 17.3 °F 30.09 in Calm     82% 0.00 in WeatherDisplay:10.37 W/m2 CLR
03:54 21.7 °F 17.1 °F 30.09 in Calm     82% 0.00 in WeatherDisplay:10.37 W/m2 CLR
03:59 21.6 °F 17.5 °F 30.09 in Calm     84% 0.00 in WeatherDisplay:10.37 W/m2 CLR
04:04 21.3 °F 17.2 °F 30.11 in Calm     84% 0.00 in WeatherDisplay:10.37 W/m2 CLR
04:09 21.1 °F 17.0 °F 30.11 in Calm     84% 0.00 in WeatherDisplay:10.37 W/m2 CLR
04:14 20.8 °F 16.5 °F 30.11 in Calm     83% 0.00 in WeatherDisplay:10.37 W/m2 CLR
04:19 20.6 °F 16.3 °F 30.11 in Calm     83% 0.00 in WeatherDisplay:10.37 W/m2 CLR
04:24 20.3 °F 16.2 °F 30.11 in Calm     84% 0.00 in WeatherDisplay:10.37 W/m2 CLR
04:29 20.0 °F 15.9 °F 30.10 in Calm     84% 0.00 in WeatherDisplay:10.37 W/m2 CLR
04:34 19.8 °F 15.7 °F 30.10 in Calm     84% 0.00 in WeatherDisplay:10.37 W/m2 CLR
04:39 19.7 °F 15.6 °F 30.11 in Calm     84% 0.00 in WeatherDisplay:10.37 W/m2 CLR
04:44 19.5 °F 15.7 °F 30.10 in Calm     85% 0.00 in WeatherDisplay:10.37 W/m2 CLR
04:49 19.3 °F 15.5 °F 30.11 in Calm     85% 0.00 in WeatherDisplay:10.37 W/m2 CLR
04:54 19.3 °F 15.8 °F 30.11 in Calm     86% 0.00 in WeatherDisplay:10.37 W/m2 CLR
04:59 19.3 °F 16.1 °F 30.11 in Calm     87% 0.00 in WeatherDisplay:10.37 W/m2 CLR
05:04 19.4 °F 15.9 °F 30.12 in Calm     86% 0.00 in WeatherDisplay:10.37 W/m2 CLR
05:09 19.3 °F 15.8 °F 30.12 in Calm     86% 0.00 in WeatherDisplay:10.37 W/m2 CLR
05:14 19.2 °F 15.7 °F 30.12 in Calm     86% 0.00 in WeatherDisplay:10.37 W/m2 CLR
05:19 19.2 °F 15.4 °F 30.12 in Calm     85% 0.00 in WeatherDisplay:10.37 W/m2 CLR
05:24 19.0 °F 15.2 °F 30.12 in Calm     85% 0.00 in WeatherDisplay:10.37 W/m2 CLR
05:29 18.9 °F 15.1 °F 30.12 in Calm     85% 0.00 in WeatherDisplay:10.37 W/m2 CLR
05:34 18.8 °F 15.0 °F 30.12 in Calm     85% 0.00 in WeatherDisplay:10.37 W/m2 CLR
05:39 18.6 °F 14.8 °F 30.12 in Calm     85% 0.00 in WeatherDisplay:10.37 W/m2 CLR
05:44 18.6 °F 15.1 °F 30.12 in Calm     86% 0.00 in WeatherDisplay:10.37 W/m2 CLR
05:49 18.5 °F 15.3 °F 30.12 in Calm     87% 0.00 in WeatherDisplay:10.37 W/m2 CLR
Windsor Co Weather
Compliments of Weather Underground - 1.75 mb